Ayersville, North Carolina
Current Conditions -  °F | °C
As of 1:55 AM on Sunday 26 Oct 2014 (Local Time) from KSIF Reporting Station
Clear Clear  
Wind Chill:   Ceiling: Unl
Heat Index:   Visibility: 10mi
Dew Point:   Wind: 3mph
Humidity: 91%   Direction: 240°WSW
Pressure: 29.86"   Gusts: NA
Location:  36.4479°N, 79.9473°W
Report Text: KSIF 260555Z AUTO 24003KT 10SM CLR 08/07 A2986 RMK AO2 T00800066 10171 20080 402271001
Loading
Personal Weather Stations






























Interactive Weather Map
Tropical Storm Tracking
New forecast layout! Learn more

10-Day Weather Forecast

Advertisements
Track Severe Weather on mobile